KBML/BML METAR and TAF weather

Enter ICAO airport designator
Station Type Date Time Source
KBML METAR 2019/04/25 21:52 UTC NOAA

KBML 252152Z AUTO 34006KT 10SM CLR 11/02 A2991 RMK AO2 SLP135 T01110022


Station Type Date Time Source
KBML Decoded METAR 2019/04/25 21:52 UTC NOAA

BERLIN MUNICIPAL AIRPORT, NH, United States (KBML) 44-35N 71-11W 345M
Apr 25, 2019 - 05:52 PM EDT / 2019.04.25 2152 UTC
Wind: from the NNW (340 degrees) at 7 MPH (6 KT):0
Visibility: 10 mile(s):0
Sky conditions: clear
Temperature: 52.0 F (11.1 C)
Dew Point: 36.0 F (2.2 C)
Relative Humidity: 54%
Pressure (altimeter): 29.91 in. Hg (1012 hPa)
ob: KBML 252152Z AUTO 34006KT 10SM CLR 11/02 A2991 RMK AO2 SLP135 T01110022
cycle: 22

Station Type Date Time Source
KBML TAF UTC NOAA

Error!

Example: see airport list